Krabi Airport
VTSG : now visible

Airfield :











YOU CAN JOIN US ON...

 
LOGIN :

Register | Disclaimer

   EN    FR    IT 

 









Legend :    VFR   Marginal VFR   IFR   Intensive IFR   Very Intensive IFR
Visi :
Ceiling :
>= 8 km
>= 3000ft
5 to 8 km
1000 to 3000 ft
1500m to 5 km
500 to 1000 ft
800 to 1500m
200 to 500 ft
< 800m
< 200 ft
Symbols :   Thunderstorms  Fog  Heavy snow  Heavy precipitations  Wind > 20 kt






- Airport Elevation : 82 ft
- IATA code : KBV


VTSG - Krabi

CURRENT METAR :
  • 300200Z 03003KT 340V070 9999 FEW020 29/28 Q1013 NOSIG

EXPIRED METARs :
  • 300100Z 02004KT 350V050 8000 FEW020 27/27 Q1012 NOSIG
  • 300000Z 01003KT 330V050 5000 BR FEW020 24/24 Q1012 NOSIG

TAF TAF VTSG
Valid from the 30 at 00:00 until the 31 at 06:00 UTC


292300Z 3000/3106 00000KT 2000 BR FEW020 SCT100
BECMG 3002/3004 24008KT 9999 NSW
TEMPO 3006/3012 29010G25KT 5000 TSRA FEW018CB SCT020 BKN100
BECMG 3012/3014 00000KT
VTBB FIR / Asia



MET'MAP, your aeronautical weather chart ! - Copyright ORBIFLY December 2007 - Disclaimer

ORBIFLY MET'MAP TEAM :

Programming & Development : Alexandra Zaïnal
Concept & original design : Baudouin d'Aumeries
Assistance for programming : Marc-Olivier Méhu
Technical & hardware support : Manuel Goepfert

Contact : metmap@orbifly.com




SOURCES & CREDITS :

   NOAA       Earth
Advisory